Time;durP1;ratioP1;P1;durP2;ratioP2;P2;SDS_P1;SDS_P2;PMS_P1;PMS_P2;Temp;Humidity;BMP_temperature;BMP_pressure;BME280_temperature;BME280_humidity;BME280_pressure;Samples;Min_cycle;Max_cycle;Signal;HPM_P1;HPM_P2
2022/05/10 00:01:28;;;;;;;9.93;7.78;;;;;;;18.74;63.39;100246.22;4966181;28;20030;-93
2022/05/10 00:03:54;;;;;;;8.65;7.75;;;;;;;18.73;63.60;100243.69;4980253;28;20560;-94
2022/05/10 00:06:32;;;;;;;8.57;7.78;;;;;;;18.73;64.21;100243.69;4962327;28;20117;-93
2022/05/10 00:08:58;;;;;;;8.98;7.88;;;;;;;18.74;64.29;100239.97;4964553;28;20025;-90
2022/05/10 00:14:28;;;;;;;8.13;7.32;;;;;;;18.70;63.39;100222.41;4891908;29;20063;-94
2022/05/10 00:16:54;;;;;;;7.40;6.70;;;;;;;18.71;63.85;100229.50;4892286;29;20048;-93
2022/05/10 00:19:20;;;;;;;7.88;6.85;;;;;;;18.68;63.60;100225.28;4876918;29;20033;-89
2022/05/10 00:21:47;;;;;;;8.07;7.22;;;;;;;18.65;63.69;100227.53;4891568;29;20111;-92
2022/05/10 00:24:13;;;;;;;7.72;7.03;;;;;;;18.58;64.25;100211.13;4891811;29;21098;-88
2022/05/10 00:26:38;;;;;;;7.55;6.82;;;;;;;18.65;64.53;100220.25;4891590;29;20064;-91
2022/05/10 00:29:03;;;;;;;7.93;7.13;;;;;;;18.65;64.74;100214.81;4891801;29;20043;-92
2022/05/10 00:31:29;;;;;;;7.28;6.68;;;;;;;18.67;64.47;100214.63;4891572;29;20113;-90
2022/05/10 00:33:55;;;;;;;7.00;6.40;;;;;;;18.65;63.54;100216.69;4875593;29;20033;-85
2022/05/10 00:36:23;;;;;;;6.88;6.10;;;;;;;18.66;63.46;100207.53;4876020;29;20036;-93
2022/05/10 00:38:48;;;;;;;7.07;5.95;;;;;;;18.63;64.18;100216.88;4907148;29;20024;-92
2022/05/10 00:41:28;;;;;;;7.05;5.88;;;;;;;18.64;64.42;100209.59;4907048;29;20584;-94
2022/05/10 00:43:58;;;;;;;6.68;6.05;;;;;;;18.61;63.63;100196.38;4873621;29;20158;-92
2022/05/10 00:46:37;;;;;;;6.88;5.95;;;;;;;18.61;64.63;100201.78;4872539;29;20025;-86
2022/05/10 00:49:20;;;;;;;6.55;5.95;;;;;;;18.59;64.19;100199.28;4888214;29;20044;-87
2022/05/10 00:51:53;;;;;;;7.00;6.40;;;;;;;18.56;63.90;100197.78;4857057;29;20533;-94
2022/05/10 00:54:43;;;;;;;6.75;6.18;;;;;;;18.54;63.62;100202.53;4872475;29;20047;-93
2022/05/10 00:57:32;;;;;;;6.57;5.97;;;;;;;18.53;64.46;100195.44;4872758;29;20048;-91
2022/05/10 01:00:15;;;;;;;7.10;6.15;;;;;;;18.51;64.93;100196.63;4887980;29;20115;-93
2022/05/10 01:02:46;;;;;;;6.60;6.00;;;;;;;18.49;64.43;100196.81;4872071;29;20037;-85
2022/05/10 01:05:17;;;;;;;6.57;5.88;;;;;;;18.48;64.39;100197.84;4873371;29;20100;-92
2022/05/10 01:07:49;;;;;;;6.30;5.70;;;;;;;18.46;64.26;100202.59;4872472;29;20029;-94
2022/05/10 01:10:24;;;;;;;7.90;5.85;;;;;;;18.44;64.33;100191.09;4856943;29;20029;-89
2022/05/10 01:12:58;;;;;;;6.53;5.93;;;;;;;18.42;63.51;100195.00;4887371;29;20071;-86
2022/05/10 01:15:24;;;;;;;6.35;5.78;;;;;;;18.42;64.07;100193.13;4872215;29;20029;-93
2022/05/10 01:17:53;;;;;;;6.70;6.10;;;;;;;18.39;64.09;100182.66;4871782;29;20033;-86
2022/05/10 01:20:23;;;;;;;7.78;7.00;;;;;;;18.41;63.91;100188.75;4872020;29;20048;-87
2022/05/10 01:22:48;;;;;;;7.28;6.57;;;;;;;18.40;64.00;100189.78;4871987;29;20503;-93
2022/05/10 01:25:41;;;;;;;7.60;6.82;;;;;;;18.35;64.42;100183.22;4873055;29;20041;-89
2022/05/10 01:28:09;;;;;;;7.38;6.65;;;;;;;18.34;63.83;100185.09;4887556;29;20072;-90
2022/05/10 01:30:35;;;;;;;7.15;6.45;;;;;;;18.32;64.42;100179.00;4887582;29;20499;-91
2022/05/10 01:35:52;;;;;;;9.93;6.50;;;;;;;18.31;64.16;100173.78;4873232;29;20040;-89
2022/05/10 01:38:39;;;;;;;7.45;6.30;;;;;;;18.27;64.41;100162.47;4871582;29;20033;-92
2022/05/10 01:41:12;;;;;;;7.43;6.72;;;;;;;18.27;64.61;100167.03;4871568;29;20031;-88
2022/05/10 01:43:45;;;;;;;7.45;6.75;;;;;;;18.24;64.51;100165.53;4871514;29;20044;-91
2022/05/10 01:46:14;;;;;;;7.13;6.40;;;;;;;18.26;64.79;100166.19;4872135;29;20037;-91
2022/05/10 01:48:40;;;;;;;9.48;6.43;;;;;;;18.20;64.30;100170.47;4871441;29;20056;-93
2022/05/10 01:51:27;;;;;;;7.65;6.80;;;;;;;18.23;64.84;100169.28;4871687;29;20044;-85
2022/05/10 01:53:52;;;;;;;8.90;6.60;;;;;;;18.20;64.71;100167.78;4871557;29;20068;-85
2022/05/10 01:56:21;;;;;;;7.20;6.55;;;;;;;18.21;65.03;100165.91;4871515;29;20500;-93
2022/05/10 01:58:47;;;;;;;6.97;6.38;;;;;;;18.18;64.89;100155.44;4871230;29;20108;-86
2022/05/10 02:01:21;;;;;;;6.88;6.28;;;;;;;18.18;64.05;100172.53;4871171;29;20476;-93
2022/05/10 02:04:09;;;;;;;7.30;6.60;;;;;;;18.13;64.04;100156.00;4881185;29;20472;-91
2022/05/10 02:06:45;;;;;;;7.07;6.22;;;;;;;18.11;64.39;100157.19;4870932;29;20037;-90
2022/05/10 02:09:31;;;;;;;6.80;6.20;;;;;;;18.10;64.07;100166.34;4872094;29;20402;-90
2022/05/10 02:12:01;;;;;;;7.30;6.57;;;;;;;18.10;64.61;100163.63;4873853;29;20203;-91
2022/05/10 02:14:32;;;;;;;6.72;6.20;;;;;;;18.11;64.22;100170.75;4892758;29;20032;-90
2022/05/10 02:17:21;;;;;;;7.95;6.47;;;;;;;18.08;63.98;100161.13;4892578;29;20036;-90
2022/05/10 02:19:48;;;;;;;;;;;;;;;18.08;64.68;100165.69;4908643;29;20471;-92
2022/05/10 02:22:33;;;;;;;7.00;6.30;;;;;;;18.06;64.40;100162.31;4909753;29;20294;-93
2022/05/10 02:25:02;;;;;;;6.43;5.82;;;;;;;18.04;64.12;100154.38;4892832;29;20566;-89
2022/05/10 02:27:37;;;;;;;6.65;6.05;;;;;;;18.03;64.65;100154.56;4892689;29;20039;-89
2022/05/10 02:30:24;;;;;;;6.93;6.22;;;;;;;18.01;63.99;100154.75;4892641;29;20024;-93
2022/05/10 02:33:09;;;;;;;8.68;6.72;;;;;;;17.98;64.53;100141.56;4892313;29;20160;-90
2022/05/10 02:35:45;;;;;;;6.78;6.07;;;;;;;17.98;64.17;100148.84;4894590;29;20100;-93
2022/05/10 02:38:13;;;;;;;6.68;6.07;;;;;;;17.94;65.01;100135.66;4892498;29;20039;-93
2022/05/10 02:40:41;;;;;;;6.85;6.15;;;;;;;17.93;64.82;100141.25;4907770;29;20325;-89
2022/05/10 02:43:09;;;;;;;6.45;5.80;;;;;;;17.89;65.17;100137.22;4892876;29;20046;-93
2022/05/10 02:45:36;;;;;;;8.35;6.07;;;;;;;17.90;64.82;100131.63;4908245;29;20043;-94
2022/05/10 02:48:02;;;;;;;6.25;5.65;;;;;;;17.91;64.55;100132.47;4892140;29;20406;-89
2022/05/10 02:50:33;;;;;;;6.55;5.85;;;;;;;17.90;64.60;100137.03;4892468;29;20028;-93
2022/05/10 02:52:59;;;;;;;6.22;5.72;;;;;;;17.88;64.44;100124.72;4892266;29;20426;-91
2022/05/10 02:55:34;;;;;;;6.43;5.82;;;;;;;17.88;64.21;100127.41;4892012;29;20031;-91
2022/05/10 02:58:04;;;;;;;6.60;6.05;;;;;;;17.89;64.55;100123.69;4892231;29;20390;-88
2022/05/10 03:00:31;;;;;;;6.88;6.18;;;;;;;17.88;64.54;100120.16;4907620;29;20028;-85
2022/05/10 03:03:00;;;;;;;6.28;5.68;;;;;;;17.90;64.83;100118.09;4892361;29;20102;-91
2022/05/10 03:05:25;;;;;;;6.60;6.00;;;;;;;17.89;64.88;100111.00;4891842;29;20490;-94
2022/05/10 03:07:53;;;;;;;6.88;6.18;;;;;;;17.88;65.04;100112.03;4892205;29;20134;-84
2022/05/10 03:10:19;;;;;;;6.40;5.90;;;;;;;17.85;64.09;100114.25;4892355;29;20036;-89
2022/05/10 03:12:44;;;;;;;7.10;6.15;;;;;;;17.84;64.73;100108.00;4891662;29;20048;-93
2022/05/10 03:15:10;;;;;;;5.70;5.22;;;;;;;17.84;65.04;100105.31;4892053;29;20044;-85
2022/05/10 03:17:35;;;;;;;6.35;5.72;;;;;;;17.80;64.93;100100.44;4876799;29;20043;-92
2022/05/10 03:20:00;;;;;;;6.63;5.75;;;;;;;17.80;64.94;100100.44;4892208;29;20051;-87
2022/05/10 03:22:26;;;;;;;6.10;5.60;;;;;;;17.79;64.85;100090.63;4892022;29;20537;-89
2022/05/10 03:24:51;;;;;;;6.30;5.57;;;;;;;17.78;64.54;100091.66;4895255;29;20067;-86
2022/05/10 03:27:19;;;;;;;6.22;5.63;;;;;;;17.76;64.13;100094.53;4896534;29;20055;-93
2022/05/10 03:29:45;;;;;;;5.90;5.40;;;;;;;17.80;65.21;100093.16;4895782;29;20559;-94
2022/05/10 03:32:10;;;;;;;6.80;5.70;;;;;;;17.79;64.29;100087.94;4896266;29;20036;-92
2022/05/10 03:34:54;;;;;;;6.38;5.40;;;;;;;17.83;63.84;100087.38;4895631;29;20043;-86
2022/05/10 03:37:24;;;;;;;6.60;5.20;;;;;;;17.84;63.88;100091.78;4897474;29;20031;-91
2022/05/10 03:39:49;;;;;;;6.05;5.45;;;;;;;17.81;63.72;100088.59;4895850;29;20047;-89
2022/05/10 03:42:15;;;;;;;6.30;5.70;;;;;;;17.79;63.65;100091.47;4895231;29;20032;-92
2022/05/10 03:44:40;;;;;;;6.35;5.68;;;;;;;17.78;64.33;100095.19;4895774;29;20080;-94
2022/05/10 03:47:08;;;;;;;6.32;5.72;;;;;;;17.75;64.41;100090.16;4910777;29;20032;-89
2022/05/10 03:49:34;;;;;;;5.97;5.38;;;;;;;17.75;64.31;100092.03;4895219;29;20087;-85
2022/05/10 03:51:59;;;;;;;7.07;5.43;;;;;;;17.73;63.91;100085.94;4895640;29;20075;-94
2022/05/10 03:54:24;;;;;;;6.60;5.50;;;;;;;17.72;63.12;100081.56;4895073;29;20162;-89
2022/05/10 03:56:51;;;;;;;5.85;5.35;;;;;;;17.69;63.88;100090.03;4895553;29;20128;-90
2022/05/10 03:59:17;;;;;;;5.57;5.07;;;;;;;17.70;63.47;100084.44;4894947;29;20087;-95
2022/05/10 04:01:44;;;;;;;6.03;5.18;;;;;;;17.72;64.06;100081.56;4895429;29;20056;-92
2022/05/10 04:04:09;;;;;;;6.70;5.47;;;;;;;17.71;64.17;100078.00;4894902;29;20028;-87
2022/05/10 04:06:34;;;;;;;5.55;5.05;;;;;;;17.71;64.96;100079.88;4894188;29;20557;-86
2022/05/10 04:09:00;;;;;;;6.53;5.68;;;;;;;17.68;64.13;100078.38;4894028;29;20052;-89
2022/05/10 04:11:25;;;;;;;5.85;5.25;;;;;;;17.64;64.80;100082.44;4894019;29;20534;-86
2022/05/10 04:13:50;;;;;;;5.95;5.40;;;;;;;17.65;64.52;100076.00;4893428;29;20059;-87
2022/05/10 04:16:16;;;;;;;7.25;5.53;;;;;;;17.58;64.91;100077.75;4893727;29;20420;-86
2022/05/10 04:18:42;;;;;;;6.45;5.85;;;;;;;17.60;65.33;100086.53;4893703;29;20327;-87
2022/05/10 04:21:08;;;;;;;5.88;5.38;;;;;;;17.57;64.86;100076.06;4878127;29;20505;-86
2022/05/10 04:23:34;;;;;;;7.57;5.53;;;;;;;17.60;65.37;100083.81;4893860;29;20086;-89
2022/05/10 04:26:04;;;;;;;6.38;5.78;;;;;;;17.57;64.07;100079.63;4878070;29;20043;-88
2022/05/10 04:28:31;;;;;;;5.93;5.43;;;;;;;17.61;64.59;100080.94;4893699;29;20155;-89
2022/05/10 04:30:56;;;;;;;5.80;5.28;;;;;;;17.60;63.61;100081.13;4893750;29;20123;-88
2022/05/10 04:33:21;;;;;;;6.07;5.57;;;;;;;17.60;64.44;100078.41;4892997;29;20136;-88
2022/05/10 04:35:46;;;;;;;6.47;5.55;;;;;;;17.61;63.62;100075.53;4893028;29;20086;-88
2022/05/10 04:38:12;;;;;;;8.25;5.18;;;;;;;17.60;64.10;100078.41;4893385;29;20091;-88
2022/05/10 04:43:21;;;;;;;6.57;5.43;;;;;;;17.63;63.79;100080.75;4896024;29;20034;-89
2022/05/10 04:45:47;;;;;;;5.72;5.18;;;;;;;17.63;63.80;100072.63;4893407;29;20028;-88
2022/05/10 04:48:12;;;;;;;7.10;5.75;;;;;;;17.63;63.46;100078.06;4893164;29;20687;-88
2022/05/10 04:50:37;;;;;;;6.25;5.65;;;;;;;17.62;64.17;100081.78;4893367;29;20176;-88
2022/05/10 04:53:03;;;;;;;8.70;6.10;;;;;;;17.61;63.46;100080.94;4877387;29;20333;-88
2022/05/10 04:55:28;;;;;;;6.15;5.45;;;;;;;17.59;63.63;100082.97;4893308;29;20028;-87
2022/05/10 04:57:53;;;;;;;6.57;5.70;;;;;;;17.56;63.37;100079.78;4877246;29;20098;-88
2022/05/10 05:00:19;;;;;;;7.88;5.50;;;;;;;17.54;63.81;100081.84;4897440;29;20036;-87
2022/05/10 05:02:46;;;;;;;6.07;5.57;;;;;;;17.54;64.06;100084.53;4896227;29;20032;-88
2022/05/10 05:05:12;;;;;;;6.88;5.57;;;;;;;17.58;64.13;100085.88;4896678;29;20415;-89
2022/05/10 05:07:38;;;;;;;6.65;6.03;;;;;;;17.57;64.18;100086.88;4897765;29;20475;-88
2022/05/10 05:10:04;;;;;;;7.10;5.78;;;;;;;17.53;63.76;100083.69;4896414;29;20035;-88
2022/05/10 05:12:33;;;;;;;6.20;5.70;;;;;;;17.55;64.52;100091.63;4892136;29;20044;-87
2022/05/10 05:15:02;;;;;;;7.97;5.93;;;;;;;17.59;64.22;100088.38;4893396;29;20040;-89
2022/05/10 05:17:30;;;;;;;8.43;6.05;;;;;;;17.59;64.02;100090.25;4893084;29;20032;-89
2022/05/10 05:19:55;;;;;;;6.93;5.65;;;;;;;17.60;64.03;100087.38;4893410;29;20028;-89
2022/05/10 05:22:21;;;;;;;6.80;6.00;;;;;;;17.59;64.34;100092.94;4893090;29;20143;-87
2022/05/10 05:24:46;;;;;;;7.30;5.90;;;;;;;17.60;65.76;100092.78;4892475;29;20088;-88
2022/05/10 05:27:11;;;;;;;8.02;6.05;;;;;;;17.59;65.66;100096.50;4892925;29;20385;-89
2022/05/10 05:29:37;;;;;;;6.68;5.95;;;;;;;17.63;66.21;100095.13;4893329;29;20484;-89
2022/05/10 05:32:06;;;;;;;10.35;6.18;;;;;;;17.64;66.00;100093.25;4895057;29;20040;-90
2022/05/10 05:34:32;;;;;;;9.35;5.60;;;;;;;17.62;66.04;100093.44;4881228;29;20040;-89
2022/05/10 05:39:42;;;;;;;8.20;6.10;;;;;;;17.67;66.00;100084.81;4910457;29;20099;-89
2022/05/10 05:42:08;;;;;;;11.70;6.45;;;;;;;17.68;66.34;100094.59;4892383;29;20032;-88
2022/05/10 05:44:33;;;;;;;8.73;5.70;;;;;;;17.68;66.05;100099.19;4893922;29;20040;-89
2022/05/10 05:46:58;;;;;;;5.97;5.20;;;;;;;17.72;65.56;100085.09;4893214;29;20064;-88
2022/05/10 05:49:25;;;;;;;8.32;5.82;;;;;;;17.73;65.25;100096.78;4902799;29;20127;-89
2022/05/10 05:51:55;;;;;;;7.40;6.47;;;;;;;17.71;65.30;100086.13;4900316;29;20080;-88
2022/05/10 05:54:20;;;;;;;8.02;7.25;;;;;;;17.74;65.75;100091.19;4898038;29;20028;-88
2022/05/10 05:56:46;;;;;;;7.80;6.60;;;;;;;17.74;66.48;100084.94;4901834;29;20386;-89
2022/05/10 05:59:11;;;;;;;6.85;6.07;;;;;;;17.77;66.15;100080.00;4901000;29;20382;-88
2022/05/10 06:01:37;;;;;;;6.80;6.10;;;;;;;17.78;67.07;100087.09;4900142;29;20395;-88
2022/05/10 06:04:02;;;;;;;6.45;5.85;;;;;;;17.81;66.71;100081.31;4900122;29;20040;-88
2022/05/10 06:06:28;;;;;;;6.25;5.35;;;;;;;17.85;66.04;100082.63;4900214;29;20028;-87
2022/05/10 06:08:53;;;;;;;6.32;5.55;;;;;;;17.87;66.65;100077.88;4900710;29;20031;-88
2022/05/10 06:11:18;;;;;;;9.48;5.75;;;;;;;17.89;67.03;100073.13;4898775;29;20447;-88
2022/05/10 06:13:44;;;;;;;5.85;5.20;;;;;;;17.94;66.79;100075.28;4897391;29;20075;-88
2022/05/10 06:16:09;;;;;;;5.95;5.22;;;;;;;17.98;67.24;100078.50;4895872;29;20032;-88
2022/05/10 06:18:35;;;;;;;5.78;4.93;;;;;;;18.03;66.31;100070.66;4897882;29;20031;-88
2022/05/10 06:21:00;;;;;;;6.85;4.95;;;;;;;18.14;66.60;100068.34;4898278;29;20459;-89
2022/05/10 06:23:26;;;;;;;4.93;4.53;;;;;;;18.20;66.96;100075.72;4893915;29;20028;-88
2022/05/10 06:25:51;;;;;;;4.70;4.28;;;;;;;18.26;66.00;100068.72;4893460;29;20048;-89
2022/05/10 06:28:17;;;;;;;5.50;4.03;;;;;;;18.30;65.63;100075.47;4900053;29;20060;-88
2022/05/10 06:30:43;;;;;;;4.18;3.78;;;;;;;18.37;65.70;100076.41;4900337;29;20071;-89
2022/05/10 06:33:08;;;;;;;4.80;4.10;;;;;;;18.44;65.41;100069.22;4901025;29;20024;-89
2022/05/10 06:35:34;;;;;;;4.50;3.42;;;;;;;18.48;66.04;100069.72;4896493;29;20043;-89
2022/05/10 06:38:19;;;;;;;3.83;3.50;;;;;;;18.55;66.13;100070.66;4892689;29;20067;-72
2022/05/10 06:40:45;;;;;;;4.18;3.78;;;;;;;18.59;64.88;100065.69;4905112;29;20035;-87
2022/05/10 06:43:11;;;;;;;3.83;3.47;;;;;;;18.62;64.78;100068.06;4887613;29;20302;-87
2022/05/10 06:45:37;;;;;;;4.00;3.58;;;;;;;18.65;65.01;100056.84;4889209;29;20115;-86
2022/05/10 06:48:03;;;;;;;4.35;3.95;;;;;;;18.71;64.52;100058.81;4890441;29;20725;-87
2022/05/10 06:50:30;;;;;;;4.28;3.88;;;;;;;18.71;64.96;100056.09;4891483;29;20028;-85
2022/05/10 06:52:57;;;;;;;4.05;3.65;;;;;;;18.76;64.64;100054.50;4889990;29;20036;-87
2022/05/10 06:55:23;;;;;;;5.38;4.15;;;;;;;18.78;64.36;100055.16;4890244;29;20040;-88
2022/05/10 06:57:48;;;;;;;3.80;3.50;;;;;;;18.76;64.14;100064.50;4889937;29;20032;-85
2022/05/10 07:00:16;;;;;;;4.15;3.72;;;;;;;18.78;64.47;100052.44;4889667;29;20090;-85
2022/05/10 07:02:42;;;;;;;5.35;4.00;;;;;;;18.83;63.58;100049.16;4888829;29;20032;-85
2022/05/10 07:05:09;;;;;;;4.05;3.75;;;;;;;18.83;64.50;100043.75;4890383;29;20076;-85
2022/05/10 07:07:34;;;;;;;4.20;3.80;;;;;;;18.85;64.73;100050.66;4887693;29;20023;-86
2022/05/10 07:10:00;;;;;;;4.13;3.50;;;;;;;18.83;64.01;100047.28;4888494;29;20028;-85
2022/05/10 07:12:25;;;;;;;4.20;3.78;;;;;;;18.86;63.99;100051.50;5380976;23;20318;-85
2022/05/10 07:14:50;;;;;;;4.20;3.90;;;;;;;18.88;64.10;100044.84;4906035;29;20079;-85
2022/05/10 07:17:16;;;;;;;4.50;3.53;;;;;;;18.87;63.63;100047.75;4905624;29;20036;-86
2022/05/10 07:19:41;;;;;;;5.32;3.50;;;;;;;18.88;63.96;100044.00;4889830;29;20036;-85
2022/05/10 07:22:07;;;;;;;3.60;3.30;;;;;;;18.82;62.79;100047.47;4905148;29;20074;-86
2022/05/10 07:24:32;;;;;;;4.47;3.50;;;;;;;18.83;63.62;100044.56;4905026;29;20059;-85
2022/05/10 07:26:57;;;;;;;4.10;3.80;;;;;;;18.82;64.07;100052.91;4890150;29;20041;-85
2022/05/10 07:29:23;;;;;;;3.35;3.15;;;;;;;18.84;63.55;100046.25;4904726;29;20135;-85
2022/05/10 07:31:49;;;;;;;4.22;3.50;;;;;;;18.86;63.34;100046.91;4905754;29;20072;-86
2022/05/10 07:34:14;;;;;;;3.67;3.38;;;;;;;18.88;63.47;100047.56;4904969;29;20039;-85
2022/05/10 07:36:40;;;;;;;3.70;3.40;;;;;;;18.94;63.87;100035.16;4904210;29;20047;-86
2022/05/10 07:39:12;;;;;;;5.38;3.95;;;;;;;19.00;63.12;100038.97;4903857;29;20073;-85
2022/05/10 07:41:38;;;;;;;3.83;3.53;;;;;;;18.99;63.13;100034.56;4904797;29;20335;-85
2022/05/10 07:44:05;;;;;;;4.82;3.70;;;;;;;19.02;63.22;100035.03;4889227;29;20044;-72
2022/05/10 07:46:31;;;;;;;4.85;3.65;;;;;;;19.10;64.61;100029.50;4919813;29;20039;-86
2022/05/10 07:48:57;;;;;;;5.93;4.10;;;;;;;19.09;62.57;100025.09;4889113;29;20526;-86
2022/05/10 07:51:22;;;;;;;3.70;3.40;;;;;;;19.13;63.26;100030.97;4905111;29;20036;-87
2022/05/10 07:53:48;;;;;;;5.07;3.63;;;;;;;19.14;64.26;100028.06;4920975;29;20059;-86
2022/05/10 07:56:13;;;;;;;3.80;3.50;;;;;;;19.16;64.20;100023.31;4905113;29;20319;-86
2022/05/10 07:58:39;;;;;;;5.05;3.42;;;;;;;19.17;63.20;100029.56;4905101;29;20059;-86
2022/05/10 08:01:04;;;;;;;3.90;3.40;;;;;;;19.18;63.98;100028.53;4905534;29;20127;-86
2022/05/10 08:03:30;;;;;;;3.75;3.45;;;;;;;19.22;64.51;100024.41;4904854;29;20498;-86
2022/05/10 08:05:56;;;;;;;3.58;3.28;;;;;;;19.27;64.63;100029.25;4920956;29;20035;-86
2022/05/10 08:08:23;;;;;;;4.00;3.63;;;;;;;19.29;63.22;100021.75;4889246;29;20459;-87
2022/05/10 08:10:49;;;;;;;4.95;3.95;;;;;;;19.31;62.80;100019.69;4891113;29;20427;-84
2022/05/10 08:13:17;;;;;;;3.60;3.30;;;;;;;19.30;63.29;100024.28;4914214;29;20467;-84
2022/05/10 08:15:44;;;;;;;3.38;3.15;;;;;;;19.32;64.90;100030.34;4914635;29;20028;-84
2022/05/10 08:18:09;;;;;;;3.47;3.20;;;;;;;19.38;64.23;100029.56;4914824;29;20378;-84
2022/05/10 08:20:35;;;;;;;3.50;3.20;;;;;;;19.40;64.36;100027.53;4930319;29;20032;-84
2022/05/10 08:23:01;;;;;;;5.22;3.80;;;;;;;19.45;63.65;100024.25;4899149;29;20044;-84
2022/05/10 08:25:26;;;;;;;3.80;3.50;;;;;;;19.45;63.33;100014.22;4930769;29;20039;-83
2022/05/10 08:27:51;;;;;;;4.55;3.67;;;;;;;19.48;64.15;100013.00;4899407;29;20090;-84
2022/05/10 08:30:17;;;;;;;3.55;3.25;;;;;;;19.49;64.15;100023.66;4930995;29;20033;-85
2022/05/10 08:32:43;;;;;;;3.72;3.35;;;;;;;19.52;62.56;100008.88;4930098;29;20126;-84
2022/05/10 08:35:09;;;;;;;3.85;3.45;;;;;;;19.52;62.63;100018.88;4898174;29;20016;-84
2022/05/10 08:37:37;;;;;;;4.45;3.72;;;;;;;19.53;62.49;100016.00;4926690;29;20036;-83
2022/05/10 08:40:07;;;;;;;3.38;3.10;;;;;;;19.53;62.42;100015.16;4912800;29;20079;-84
2022/05/10 08:42:34;;;;;;;4.22;3.60;;;;;;;19.56;62.40;100017.50;4898118;29;20028;-84
2022/05/10 08:45:08;;;;;;;3.80;3.40;;;;;;;19.60;60.70;100010.63;4897122;29;20024;-84
2022/05/10 08:47:35;;;;;;;3.95;3.55;;;;;;;19.62;60.87;100022.13;4913268;29;20047;-84
2022/05/10 08:50:06;;;;;;;4.13;3.67;;;;;;;19.62;61.17;100014.00;4898070;29;20083;-83
2022/05/10 08:52:33;;;;;;;3.35;2.97;;;;;;;19.64;62.31;100011.91;4930478;29;20063;-84
2022/05/10 08:54:59;;;;;;;3.50;3.00;;;;;;;19.63;61.12;100008.38;4914262;29;20036;-85
2022/05/10 08:57:38;;;;;;;3.30;3.03;;;;;;;19.66;62.10;100007.97;4914330;29;20090;-83
2022/05/10 09:00:10;;;;;;;9.07;3.30;;;;;;;19.71;60.63;100013.66;4914751;29;20024;-83
2022/05/10 09:02:51;;;;;;;4.40;3.40;;;;;;;19.76;60.15;100015.78;4929083;29;20095;-81
2022/05/10 09:05:25;;;;;;;3.70;3.10;;;;;;;19.78;59.04;100011.00;4914686;29;20126;-81
2022/05/10 09:08:21;;;;;;;3.90;3.50;;;;;;;19.78;59.80;100003.69;4928775;29;20119;-82
2022/05/10 09:10:52;;;;;;;3.80;3.50;;;;;;;19.78;58.19;100009.13;4916523;29;20060;-84
2022/05/10 09:13:19;;;;;;;3.50;3.20;;;;;;;19.79;58.87;100004.53;4927786;29;20075;-80
2022/05/10 09:15:49;;;;;;;3.50;3.20;;;;;;;19.79;58.64;99999.94;4915314;29;20031;-82
2022/05/10 09:18:49;;;;;;;4.13;3.10;;;;;;;19.78;59.68;99990.13;4929580;29;20040;-85
2022/05/10 09:21:20;;;;;;;5.97;3.60;;;;;;;19.82;59.12;99998.72;4914592;29;20036;-85
2022/05/10 09:24:10;;;;;;;4.50;2.92;;;;;;;19.86;59.92;99991.00;4913167;29;20035;-81
2022/05/10 09:26:44;;;;;;;3.50;3.20;;;;;;;19.91;59.63;100004.84;4915205;29;20035;-81
2022/05/10 09:29:17;;;;;;;3.40;3.10;;;;;;;19.90;59.21;99986.91;4914070;29;20076;-80
2022/05/10 09:34:46;;;;;;;4.10;2.92;;;;;;;19.94;59.85;99977.31;4925343;29;20064;-81
2022/05/10 09:37:17;;;;;;;3.80;3.40;;;;;;;20.03;58.24;99981.56;4913332;29;20032;-82
2022/05/10 09:39:47;;;;;;;3.38;3.00;;;;;;;20.04;58.65;99980.50;4928573;29;20522;-83
2022/05/10 09:42:30;;;;;;;3.25;2.95;;;;;;;20.04;58.61;99980.50;4897853;29;20040;-80
2022/05/10 09:45:07;;;;;;;3.28;2.95;;;;;;;20.05;58.43;99976.75;4914499;29;20038;-84
2022/05/10 09:47:33;;;;;;;5.28;3.05;;;;;;;20.08;56.90;99973.66;4926835;29;20565;-84
2022/05/10 09:50:19;;;;;;;6.55;3.30;;;;;;;20.06;57.35;99976.56;4896289;29;20039;-84
2022/05/10 09:52:46;;;;;;;4.60;3.38;;;;;;;20.09;57.18;99972.59;4912780;29;20051;-84
2022/05/10 09:55:25;;;;;;;5.38;3.28;;;;;;;20.08;58.05;99973.66;4896834;29;20024;-84
2022/05/10 09:57:51;;;;;;;3.40;3.10;;;;;;;20.09;57.75;99975.31;4912653;29;20032;-84
2022/05/10 10:00:17;;;;;;;4.25;3.00;;;;;;;20.12;55.72;99977.63;4913480;29;20084;-84
2022/05/10 10:02:43;;;;;;;9.38;3.50;;;;;;;20.14;56.00;99975.56;4912939;29;20096;-83
2022/05/10 10:05:41;;;;;;;3.67;3.15;;;;;;;20.20;55.36;99974.75;4913262;29;20490;-84
2022/05/10 10:08:07;;;;;;;8.05;3.58;;;;;;;20.23;55.62;99970.81;4900556;29;20071;-84
2022/05/10 10:10:37;;;;;;;4.47;3.47;;;;;;;20.24;56.62;99976.03;4912653;29;20400;-84
2022/05/10 10:13:24;;;;;;;6.85;3.53;;;;;;;20.24;56.36;99975.19;4911890;29;20040;-84
2022/05/10 10:15:49;;;;;;;5.93;3.40;;;;;;;20.26;55.88;99978.56;4911337;29;20040;-84
2022/05/10 10:18:52;;;;;;;4.53;3.22;;;;;;;20.24;56.20;99976.03;4926260;29;20382;-84
2022/05/10 10:21:25;;;;;;;3.22;3.03;;;;;;;20.28;55.20;99971.03;4912084;29;20028;-85
2022/05/10 10:23:58;;;;;;;4.30;3.20;;;;;;;20.28;56.56;99971.88;4912944;29;20498;-84
2022/05/10 10:26:50;;;;;;;3.90;3.03;;;;;;;20.30;56.69;99967.09;4912604;29;20032;-84
2022/05/10 10:29:29;;;;;;;3.58;3.28;;;;;;;20.33;56.73;99963.13;4928957;29;20203;-84
2022/05/10 10:31:58;;;;;;;4.78;3.50;;;;;;;20.38;56.36;99964.22;4913141;29;20040;-83
2022/05/10 10:34:33;;;;;;;3.58;3.28;;;;;;;20.39;57.14;99949.63;4912308;29;20034;-83
2022/05/10 10:37:04;;;;;;;3.90;3.13;;;;;;;20.43;56.14;99959.06;4913800;29;20095;-83
2022/05/10 10:39:43;;;;;;;3.78;3.47;;;;;;;20.43;56.92;99952.78;4928546;29;20036;-84
2022/05/10 10:42:12;;;;;;;4.57;3.17;;;;;;;20.43;56.98;99950.06;4913836;29;20738;-84
2022/05/10 10:44:41;;;;;;;3.90;3.60;;;;;;;20.48;57.01;99954.91;4928403;29;20067;-84
2022/05/10 10:47:29;;;;;;;4.82;3.58;;;;;;;20.49;56.91;99949.25;4912735;29;20131;-84
2022/05/10 10:50:17;;;;;;;5.68;4.05;;;;;;;20.53;56.12;99936.94;4895753;29;20035;-84
2022/05/10 10:52:42;;;;;;;3.85;3.55;;;;;;;20.54;57.04;99943.22;4927373;29;20087;-84
2022/05/10 10:55:09;;;;;;;3.88;3.33;;;;;;;20.56;57.68;99936.53;4912591;29;20123;-83
2022/05/10 10:57:40;;;;;;;4.88;3.75;;;;;;;20.60;56.01;99947.84;4911335;29;20028;-85
2022/05/10 11:00:18;;;;;;;3.85;3.40;;;;;;;20.61;58.06;99942.19;4912520;29;20058;-84
2022/05/10 11:03:00;;;;;;;6.80;3.38;;;;;;;20.63;57.86;99939.28;4911587;29;20040;-84
2022/05/10 11:05:44;;;;;;;3.97;3.30;;;;;;;20.67;57.95;99929.66;4912329;29;20395;-85
2022/05/10 11:08:46;;;;;;;3.95;3.53;;;;;;;20.68;57.49;99929.47;4912811;29;20043;-84
2022/05/10 11:11:30;;;;;;;4.13;3.70;;;;;;;20.72;57.36;99924.47;4889916;29;20092;-84
2022/05/10 11:14:27;;;;;;;4.40;3.60;;;;;;;20.69;57.89;99925.72;4906763;29;20044;-83
2022/05/10 11:17:24;;;;;;;4.20;3.80;;;;;;;20.74;57.89;99925.09;4921231;29;20068;-85
2022/05/10 11:19:54;;;;;;;4.07;3.50;;;;;;;20.75;57.77;99932.19;4921465;29;20024;-83
2022/05/10 11:22:30;;;;;;;4.13;3.70;;;;;;;20.76;57.39;99917.56;4905550;29;20486;-84
2022/05/10 11:25:15;;;;;;;5.22;3.90;;;;;;;20.77;58.00;99937.44;4905297;29;20419;-83
2022/05/10 11:28:00;;;;;;;3.58;3.28;;;;;;;20.76;57.77;99923.00;4904679;29;20032;-84
2022/05/10 11:30:32;;;;;;;4.32;3.80;;;;;;;20.78;57.49;99922.81;4905828;29;20051;-82
2022/05/10 11:33:05;;;;;;;3.85;3.55;;;;;;;20.80;57.71;99931.59;4911049;29;20064;-83
2022/05/10 11:35:49;;;;;;;5.10;3.88;;;;;;;20.82;57.21;99926.81;4926712;29;20044;-82
2022/05/10 11:38:42;;;;;;;4.05;3.70;;;;;;;20.90;56.27;99923.91;4927705;29;20032;-83
2022/05/10 11:41:18;;;;;;;3.92;3.63;;;;;;;20.91;56.58;99915.53;4908341;29;20035;-82
2022/05/10 11:44:05;;;;;;;4.68;3.65;;;;;;;20.91;56.91;99901.94;4908546;29;20023;-82
2022/05/10 11:46:57;;;;;;;4.20;3.80;;;;;;;20.92;56.44;99897.34;4930783;29;20032;-82
2022/05/10 11:49:27;;;;;;;8.07;3.60;;;;;;;20.99;56.32;99893.59;4931390;29;20476;-83
2022/05/10 11:51:59;;;;;;;7.15;4.25;;;;;;;21.04;57.13;99893.81;4915729;29;20039;-82
2022/05/10 11:54:40;;;;;;;4.53;3.92;;;;;;;21.09;56.09;99882.31;4913540;29;20293;-84
2022/05/10 11:57:17;;;;;;;6.28;3.72;;;;;;;21.09;56.54;99890.47;4926441;29;20062;-83